createdAt,value
2022-08-02T00:00:55.706Z,0.93
2022-08-02T00:03:24.847Z,1.30
2022-08-02T00:05:54.520Z,1.00
2022-08-02T00:08:23.401Z,1.10
2022-08-02T00:10:53.372Z,0.90
2022-08-02T00:13:22.008Z,1.10
2022-08-02T00:15:50.630Z,0.93
2022-08-02T00:18:20.597Z,1.20
2022-08-02T00:20:49.141Z,1.20
2022-08-02T00:23:17.641Z,1.20
2022-08-02T00:25:54.939Z,1.30
2022-08-02T00:28:28.009Z,1.00
2022-08-02T00:30:58.236Z,1.30
2022-08-02T00:34:05.210Z,1.20
2022-08-02T00:36:16.753Z,1.20
2022-08-02T00:38:46.340Z,0.90
2022-08-02T00:41:18.292Z,1.17
2022-08-02T00:43:50.110Z,1.07
2022-08-02T00:46:20.686Z,1.30
2022-08-02T00:48:49.958Z,1.33
2022-08-02T00:51:19.259Z,1.10
2022-08-02T00:53:47.837Z,1.00
2022-08-02T00:56:16.374Z,1.10
2022-08-02T00:58:44.921Z,1.30
2022-08-02T01:01:16.153Z,1.03
2022-08-02T01:03:44.942Z,1.03
2022-08-02T01:06:13.519Z,1.47
2022-08-02T01:08:43.735Z,1.30
2022-08-02T01:11:13.474Z,1.03
2022-08-02T01:13:42.264Z,0.90
2022-08-02T01:16:20.823Z,1.00
2022-08-02T01:18:56.161Z,0.90
2022-08-02T01:21:39.775Z,1.00
2022-08-02T01:24:35.309Z,1.07
2022-08-02T01:27:22.331Z,1.20
2022-08-02T01:29:58.670Z,1.20
2022-08-02T01:32:32.042Z,1.00
2022-08-02T01:35:05.210Z,1.30
2022-08-02T01:37:41.092Z,1.07
2022-08-02T01:40:15.579Z,1.33
2022-08-02T01:42:49.971Z,1.37
2022-08-02T01:45:21.341Z,1.17
2022-08-02T01:47:52.038Z,1.13
2022-08-02T01:50:27.085Z,1.23
2022-08-02T01:52:59.346Z,1.50
2022-08-02T01:55:35.267Z,1.27
2022-08-02T01:58:26.535Z,1.33
2022-08-02T02:00:59.788Z,1.10
2022-08-02T02:03:30.910Z,1.03
2022-08-02T02:06:04.550Z,1.03
2022-08-02T02:08:38.316Z,1.23
2022-08-02T02:12:11.985Z,1.30
2022-08-02T02:13:59.579Z,1.60
2022-08-02T02:16:32.060Z,1.17
2022-08-02T02:19:03.271Z,1.40
2022-08-02T02:21:32.176Z,1.80
2022-08-02T02:24:04.137Z,1.70
2022-08-02T02:26:37.640Z,1.43
2022-08-02T02:29:12.329Z,1.50
2022-08-02T02:31:46.131Z,1.37
2022-08-02T02:34:18.497Z,1.30
2022-08-02T02:36:50.609Z,1.33
2022-08-02T02:39:23.420Z,1.77
2022-08-02T02:41:54.543Z,1.53
2022-08-02T02:44:24.906Z,1.53
2022-08-02T02:46:57.575Z,1.70
2022-08-02T02:49:28.124Z,1.40
2022-08-02T02:51:58.275Z,1.40
2022-08-02T02:54:32.581Z,1.50
2022-08-02T02:57:06.308Z,1.40
2022-08-02T02:59:43.041Z,1.40
2022-08-02T03:02:21.091Z,1.27
2022-08-02T03:04:55.874Z,1.20
2022-08-02T03:07:27.264Z,1.30
2022-08-02T03:09:56.393Z,0.97
2022-08-02T03:12:31.288Z,1.20
2022-08-02T03:15:03.505Z,1.13
2022-08-02T03:17:45.819Z,1.30
2022-08-02T03:20:20.016Z,1.33
2022-08-02T03:22:49.075Z,0.93
2022-08-02T03:25:18.828Z,1.23
2022-08-02T03:27:47.768Z,1.30
2022-08-02T03:30:16.703Z,1.20
2022-08-02T03:32:49.732Z,1.27
2022-08-02T03:35:24.021Z,1.10
2022-08-02T03:37:55.493Z,1.27
2022-08-02T03:40:25.305Z,1.10
2022-08-02T03:42:54.914Z,1.20
2022-08-02T03:45:24.597Z,1.30
2022-08-02T03:47:54.480Z,1.20
2022-08-02T03:50:29.038Z,1.13
2022-08-02T03:52:58.230Z,1.20
2022-08-02T03:55:27.062Z,1.20
2022-08-02T03:57:55.779Z,1.30
2022-08-02T04:00:25.186Z,1.00
2022-08-02T04:02:55.250Z,1.27
2022-08-02T04:05:23.971Z,1.10
2022-08-02T04:08:32.757Z,1.20
2022-08-02T04:10:59.102Z,0.97
2022-08-02T04:13:35.646Z,1.33
2022-08-02T04:16:12.668Z,0.93
2022-08-02T04:18:47.937Z,1.23
2022-08-02T04:21:19.244Z,1.30
2022-08-02T04:23:50.135Z,1.20
2022-08-02T04:26:28.193Z,1.50
2022-08-02T04:28:58.741Z,1.30
2022-08-02T04:31:27.771Z,1.33
2022-08-02T04:33:58.359Z,1.40
2022-08-02T04:36:31.105Z,1.43
2022-08-02T04:39:00.686Z,1.47
2022-08-02T04:41:44.207Z,1.63
2022-08-02T04:44:13.708Z,1.47
2022-08-02T04:46:44.652Z,1.47
2022-08-02T04:49:15.047Z,1.60
2022-08-02T04:51:44.642Z,1.40
2022-08-02T04:54:13.421Z,1.43
2022-08-02T04:56:42.526Z,1.50
2022-08-02T04:59:12.418Z,1.50
2022-08-02T05:01:42.545Z,1.30
2022-08-02T05:04:11.271Z,1.30
2022-08-02T05:06:41.294Z,1.60
2022-08-02T05:09:09.937Z,1.50
2022-08-02T05:11:38.505Z,1.47
2022-08-02T05:14:07.435Z,1.50
2022-08-02T05:16:36.961Z,1.40
2022-08-02T05:19:05.546Z,1.67
2022-08-02T05:21:34.083Z,1.50
2022-08-02T05:24:04.217Z,1.73
2022-08-02T05:26:32.755Z,1.50
2022-08-02T05:29:01.224Z,1.83
2022-08-02T05:31:29.750Z,1.80
2022-08-02T05:33:58.574Z,1.73
2022-08-02T05:36:27.223Z,1.53
2022-08-02T05:38:59.733Z,1.70
2022-08-02T05:41:35.376Z,1.40
2022-08-02T05:44:04.435Z,1.53
2022-08-02T05:46:33.248Z,1.80
2022-08-02T05:49:03.392Z,1.97
2022-08-02T05:51:39.024Z,1.70
2022-08-02T05:54:18.413Z,1.80
2022-08-02T05:56:57.840Z,1.77
2022-08-02T05:59:34.115Z,1.70
2022-08-02T06:02:06.259Z,1.77
2022-08-02T06:04:45.647Z,1.80
2022-08-02T06:07:15.444Z,1.80
2022-08-02T06:09:46.435Z,1.80
2022-08-02T06:12:18.743Z,1.57
2022-08-02T06:14:54.082Z,1.67
2022-08-02T06:17:24.185Z,2.07
2022-08-02T06:19:58.293Z,2.00
2022-08-02T06:22:32.907Z,2.20
2022-08-02T06:25:47.858Z,2.10
2022-08-02T06:27:57.184Z,1.80
2022-08-02T06:30:26.310Z,1.63
2022-08-02T06:32:55.138Z,1.67
2022-08-02T06:35:27.280Z,1.90
2022-08-02T06:38:01.984Z,1.90
2022-08-02T06:40:34.208Z,1.60
2022-08-02T06:43:14.181Z,1.63
2022-08-02T06:45:42.988Z,1.97
2022-08-02T06:48:11.761Z,1.80
2022-08-02T06:50:42.166Z,1.90
2022-08-02T06:53:11.780Z,1.67
2022-08-02T06:55:43.246Z,1.90
2022-08-02T06:58:15.328Z,1.73
2022-08-02T07:00:44.573Z,1.70
2022-08-02T07:03:13.463Z,1.87
2022-08-02T07:05:45.705Z,1.90
2022-08-02T07:08:14.405Z,1.80
2022-08-02T07:10:42.933Z,1.50
2022-08-02T07:13:11.609Z,1.70
2022-08-02T07:15:48.938Z,1.80
2022-08-02T07:18:18.151Z,1.77
2022-08-02T07:20:47.350Z,1.70
2022-08-02T07:23:16.076Z,1.40
2022-08-02T07:26:02.710Z,1.60
2022-08-02T07:28:33.295Z,1.50
2022-08-02T07:31:03.220Z,1.87
2022-08-02T07:33:38.187Z,1.47
2022-08-02T07:36:16.872Z,1.33
2022-08-02T07:38:51.164Z,1.47
2022-08-02T07:41:21.845Z,1.63
2022-08-02T07:43:51.446Z,1.50
2022-08-02T07:46:21.353Z,1.33
2022-08-02T07:48:49.957Z,1.33
2022-08-02T07:51:18.653Z,1.27
2022-08-02T07:53:50.843Z,1.43
2022-08-02T07:56:30.734Z,1.30
2022-08-02T07:58:59.432Z,1.10
2022-08-02T08:01:29.457Z,1.43
2022-08-02T08:03:58.207Z,1.67
2022-08-02T08:06:28.999Z,1.37
2022-08-02T08:08:57.750Z,1.17
2022-08-02T08:11:26.903Z,0.93
2022-08-02T08:13:55.764Z,1.00
2022-08-02T08:16:26.234Z,0.97
2022-08-02T08:18:56.201Z,1.00
2022-08-02T08:21:24.705Z,0.93
2022-08-02T08:23:53.281Z,0.67
2022-08-02T08:26:21.925Z,0.67
2022-08-02T08:28:50.649Z,0.87
2022-08-02T08:31:19.521Z,0.80
2022-08-02T08:33:48.207Z,0.67
2022-08-02T08:36:18.624Z,0.70
2022-08-02T08:38:47.254Z,0.60
2022-08-02T08:41:18.259Z,0.70
2022-08-02T08:43:53.118Z,0.60
2022-08-02T08:46:28.545Z,0.80
2022-08-02T08:49:02.615Z,0.90
2022-08-02T08:51:39.050Z,0.90
2022-08-02T08:54:12.080Z,0.70
2022-08-02T08:56:42.060Z,0.60
2022-08-02T08:59:11.293Z,0.93
2022-08-02T09:01:49.971Z,0.73
2022-08-02T09:04:19.506Z,0.70
2022-08-02T09:06:49.457Z,0.73
2022-08-02T09:09:18.030Z,0.80
2022-08-02T09:11:46.663Z,0.73
2022-08-02T09:14:29.251Z,0.80
2022-08-02T09:17:09.411Z,0.90
2022-08-02T09:19:38.074Z,0.90
2022-08-02T09:22:16.487Z,0.70
2022-08-02T09:24:47.501Z,0.73
2022-08-02T09:27:18.977Z,0.90
2022-08-02T09:32:46.639Z,0.95
2022-08-02T09:35:15.356Z,0.90
2022-08-02T09:37:48.728Z,0.98
2022-08-02T09:40:17.415Z,1.20
2022-08-02T09:43:00.120Z,0.95
2022-08-02T09:45:34.618Z,0.98
2022-08-02T09:48:04.433Z,0.80
2022-08-02T09:50:33.344Z,0.90
2022-08-02T09:53:04.129Z,1.00
2022-08-02T09:55:33.471Z,0.93
2022-08-02T09:58:19.465Z,1.20
2022-08-02T10:00:57.009Z,1.30
2022-08-02T10:03:35.234Z,1.27
2022-08-02T10:06:05.839Z,1.15
2022-08-02T10:08:36.013Z,1.20
2022-08-02T10:11:04.731Z,1.20
2022-08-02T10:13:37.765Z,1.02
2022-08-02T10:16:07.487Z,1.00
2022-08-02T10:18:39.498Z,0.88
2022-08-02T10:21:15.401Z,0.98
2022-08-02T10:23:47.812Z,1.10
2022-08-02T10:26:18.922Z,0.98
2022-08-02T10:28:51.125Z,1.10
2022-08-02T10:31:26.155Z,1.08
2022-08-02T10:33:57.359Z,0.88
2022-08-02T10:36:28.084Z,1.15
2022-08-02T10:38:59.729Z,1.13
2022-08-02T10:41:49.568Z,1.10
2022-08-02T10:44:27.788Z,1.23
2022-08-02T10:47:22.900Z,1.30
2022-08-02T10:49:54.428Z,1.20
2022-08-02T10:52:24.131Z,1.10
2022-08-02T10:54:57.906Z,1.30
2022-08-02T10:57:28.671Z,0.90
2022-08-02T10:59:59.863Z,1.05
2022-08-02T11:02:43.818Z,0.98
2022-08-02T11:05:15.763Z,1.05
2022-08-02T11:07:47.582Z,1.00
2022-08-02T11:10:36.125Z,1.10
2022-08-02T11:13:15.069Z,0.98
2022-08-02T11:15:57.050Z,0.95
2022-08-02T11:18:59.279Z,1.55
2022-08-02T11:21:29.351Z,1.13
2022-08-02T11:24:25.426Z,1.05
2022-08-02T11:26:56.201Z,1.20
2022-08-02T11:29:39.048Z,1.17
2022-08-02T11:32:09.650Z,1.30
2022-08-02T11:34:40.307Z,1.20
2022-08-02T11:37:08.948Z,1.30
2022-08-02T11:39:37.543Z,1.13
2022-08-02T11:42:08.739Z,1.20
2022-08-02T11:44:46.848Z,1.20
2022-08-02T11:47:15.422Z,1.50
2022-08-02T11:49:44.777Z,1.23
2022-08-02T11:52:13.774Z,1.08
2022-08-02T11:54:44.613Z,1.10
2022-08-02T11:57:21.373Z,1.33
2022-08-02T11:59:52.432Z,1.15
2022-08-02T12:02:23.895Z,1.40
2022-08-02T12:04:58.812Z,1.38
2022-08-02T12:07:34.349Z,1.30
2022-08-02T12:10:08.251Z,1.40
2022-08-02T12:12:51.802Z,1.10
2022-08-02T12:15:41.902Z,1.20
2022-08-02T12:18:30.061Z,1.45
2022-08-02T12:20:58.904Z,1.15
2022-08-02T12:23:28.838Z,1.08
2022-08-02T12:26:06.386Z,1.13
2022-08-02T12:28:39.390Z,1.00
2022-08-02T12:31:11.597Z,0.93
2022-08-02T12:33:48.051Z,0.98
2022-08-02T12:36:18.025Z,0.98
2022-08-02T12:38:53.979Z,1.17
2022-08-02T12:41:30.474Z,0.70
2022-08-02T12:44:02.296Z,0.80
2022-08-02T12:46:31.965Z,0.70
2022-08-02T12:49:19.050Z,0.90
2022-08-02T12:51:56.357Z,0.90
2022-08-02T12:54:31.375Z,0.90
2022-08-02T12:57:11.726Z,0.90
2022-08-02T12:59:45.626Z,1.10
2022-08-02T13:02:16.974Z,1.10
2022-08-02T13:04:49.933Z,1.00
2022-08-02T13:07:19.654Z,1.00
2022-08-02T13:09:50.078Z,0.93
2022-08-02T13:12:18.828Z,0.90
2022-08-02T13:14:48.786Z,0.57
2022-08-02T13:17:17.295Z,1.10
2022-08-02T13:19:47.407Z,1.05
2022-08-02T13:22:20.435Z,0.82
2022-08-02T13:24:56.700Z,0.90
2022-08-02T13:27:27.495Z,1.00
2022-08-02T13:29:58.917Z,1.00
2022-08-02T13:32:29.005Z,0.80
2022-08-02T13:34:59.129Z,0.85
2022-08-02T13:37:28.343Z,0.98
2022-08-02T13:40:19.998Z,0.85
2022-08-02T13:42:45.637Z,0.80
2022-08-02T13:45:16.133Z,0.90
2022-08-02T13:48:03.922Z,1.17
2022-08-02T13:50:34.619Z,0.80
2022-08-02T13:53:03.220Z,1.00
2022-08-02T13:55:31.874Z,0.90
2022-08-02T13:58:00.538Z,0.93
2022-08-02T14:00:34.928Z,0.95
2022-08-02T14:03:07.042Z,0.65
2022-08-02T14:05:48.578Z,0.90
2022-08-02T14:08:19.165Z,0.88
2022-08-02T14:10:48.712Z,0.95
2022-08-02T14:13:17.962Z,0.70
2022-08-02T14:15:48.305Z,0.73
2022-08-02T14:18:17.478Z,0.73
2022-08-02T14:20:46.479Z,0.75
2022-08-02T14:23:17.108Z,0.82
2022-08-02T14:25:46.905Z,0.77
2022-08-02T14:28:16.102Z,0.90
2022-08-02T14:30:47.190Z,0.75
2022-08-02T14:33:16.071Z,1.00
2022-08-02T14:35:45.152Z,0.90
2022-08-02T14:38:14.600Z,0.80
2022-08-02T14:40:43.387Z,1.13
2022-08-02T14:43:31.944Z,0.70
2022-08-02T14:46:02.139Z,1.02
2022-08-02T14:48:31.256Z,0.98
2022-08-02T14:50:59.917Z,1.00
2022-08-02T14:53:28.446Z,0.80
2022-08-02T14:56:06.950Z,1.00
2022-08-02T14:58:35.438Z,1.27
2022-08-02T15:01:05.499Z,1.00
2022-08-02T15:03:43.513Z,0.80
2022-08-02T15:06:12.723Z,1.00
2022-08-02T15:08:41.232Z,1.00
2022-08-02T15:11:10.044Z,1.15
2022-08-02T15:13:42.505Z,0.98
2022-08-02T15:16:12.869Z,1.00
2022-08-02T15:18:41.427Z,0.90
2022-08-02T15:21:27.528Z,0.90
2022-08-02T15:23:59.206Z,1.00
2022-08-02T15:26:27.834Z,0.90
2022-08-02T15:28:56.977Z,0.95
2022-08-02T15:31:32.850Z,1.10
2022-08-02T15:34:02.855Z,0.90
2022-08-02T15:36:31.382Z,0.85
2022-08-02T15:38:59.914Z,0.60
2022-08-02T15:41:28.556Z,1.10
2022-08-02T15:44:00.390Z,0.85
2022-08-02T15:46:37.411Z,1.00
2022-08-02T15:49:06.704Z,1.17
2022-08-02T15:51:35.534Z,0.90
2022-08-02T15:54:04.153Z,1.10
2022-08-02T15:56:32.810Z,1.05
2022-08-02T15:59:01.295Z,1.20
2022-08-02T16:01:37.110Z,1.10
2022-08-02T16:04:08.407Z,0.80
2022-08-02T16:06:37.807Z,0.95
2022-08-02T16:09:06.404Z,0.90
2022-08-02T16:11:35.178Z,0.80
2022-08-02T16:14:04.134Z,0.75
2022-08-02T16:16:40.203Z,0.80
2022-08-02T16:19:47.734Z,0.93
2022-08-02T16:21:57.476Z,1.10
2022-08-02T16:24:26.941Z,1.10
2022-08-02T16:26:55.547Z,0.98
2022-08-02T16:29:24.141Z,0.73
2022-08-02T16:31:54.100Z,0.85
2022-08-02T16:34:22.923Z,1.00
2022-08-02T16:36:51.639Z,0.82
2022-08-02T16:39:20.270Z,0.90
2022-08-02T16:41:52.791Z,0.80
2022-08-02T16:44:27.088Z,0.75
2022-08-02T16:47:01.835Z,0.90
2022-08-02T16:50:05.725Z,0.75
2022-08-02T16:52:19.816Z,0.80
2022-08-02T16:54:49.839Z,0.80
2022-08-02T17:00:12.545Z,0.90
2022-08-02T17:02:42.715Z,0.70
2022-08-02T17:05:14.348Z,0.70
2022-08-02T17:08:08.348Z,0.70
2022-08-02T17:10:33.812Z,0.55
2022-08-02T17:13:11.631Z,0.77
2022-08-02T17:16:01.257Z,0.80
2022-08-02T17:18:32.523Z,0.55
2022-08-02T17:21:04.206Z,0.80
2022-08-02T17:23:47.246Z,0.60
2022-08-02T17:26:21.425Z,0.90
2022-08-02T17:29:16.503Z,0.70
2022-08-02T17:31:43.701Z,0.80
2022-08-02T17:34:16.698Z,0.50
2022-08-02T17:36:49.719Z,0.80
2022-08-02T17:39:18.486Z,0.65
2022-08-02T17:41:50.618Z,0.60
2022-08-02T17:44:36.912Z,0.60
2022-08-02T17:47:08.676Z,0.90
2022-08-02T17:49:44.148Z,0.80
2022-08-02T17:52:51.063Z,0.70
2022-08-02T17:55:06.020Z,0.70
2022-08-02T17:57:58.774Z,0.77
2022-08-02T18:00:24.684Z,0.68
2022-08-02T18:02:55.401Z,0.60
2022-08-02T18:05:39.289Z,0.68
2022-08-02T18:08:10.748Z,0.70
2022-08-02T18:10:42.782Z,0.60
2022-08-02T18:13:12.711Z,0.47
2022-08-02T18:15:45.678Z,0.70
2022-08-02T18:18:14.819Z,0.65
2022-08-02T18:20:44.974Z,0.60
2022-08-02T18:23:14.111Z,0.80
2022-08-02T18:25:46.637Z,0.60
2022-08-02T18:28:16.755Z,0.50
2022-08-02T18:30:45.247Z,0.52
2022-08-02T18:33:56.052Z,0.55
2022-08-02T18:36:03.990Z,0.80
2022-08-02T18:38:32.798Z,0.60
2022-08-02T18:41:12.837Z,0.70
2022-08-02T18:43:43.664Z,0.60
2022-08-02T18:46:15.992Z,0.70
2022-08-02T18:48:48.013Z,0.68
2022-08-02T18:51:19.376Z,0.68
2022-08-02T18:53:51.355Z,0.80
2022-08-02T18:56:24.345Z,0.60
2022-08-02T18:58:54.625Z,0.70
2022-08-02T19:01:33.664Z,0.52
2022-08-02T19:04:08.599Z,0.63
2022-08-02T19:06:39.087Z,0.80
2022-08-02T19:09:13.260Z,0.70
2022-08-02T19:11:47.510Z,0.60
2022-08-02T19:17:16.018Z,0.82
2022-08-02T19:19:57.373Z,0.65
2022-08-02T19:22:27.491Z,0.65
2022-08-02T19:25:01.214Z,0.60
2022-08-02T19:27:32.533Z,0.70
2022-08-02T19:30:03.173Z,0.68
2022-08-02T19:32:42.983Z,0.90
2022-08-02T19:35:30.604Z,0.70
2022-08-02T19:38:11.255Z,0.52
2022-08-02T19:40:42.225Z,0.52
2022-08-02T19:44:26.075Z,0.70
2022-08-02T19:46:01.253Z,0.50
2022-08-02T19:48:29.965Z,0.73
2022-08-02T19:51:02.186Z,0.77
2022-08-02T19:53:48.899Z,0.65
2022-08-02T19:56:24.825Z,0.60
2022-08-02T19:58:57.513Z,0.30
2022-08-02T20:01:37.266Z,0.55
2022-08-02T20:04:13.453Z,0.70
2022-08-02T20:06:45.216Z,0.50
2022-08-02T20:09:17.184Z,0.70
2022-08-02T20:11:54.248Z,0.68
2022-08-02T20:14:26.704Z,0.70
2022-08-02T20:16:57.306Z,0.88
2022-08-02T20:19:28.861Z,0.98
2022-08-02T20:21:59.893Z,0.75
2022-08-02T20:24:30.717Z,1.13
2022-08-02T20:27:00.460Z,0.90
2022-08-02T20:29:44.723Z,0.95
2022-08-02T20:32:22.689Z,1.20
2022-08-02T20:34:52.843Z,1.10
2022-08-02T20:37:59.579Z,1.17
2022-08-02T20:40:17.072Z,0.77
2022-08-02T20:42:47.949Z,1.25
2022-08-02T20:45:17.694Z,1.20
2022-08-02T20:47:50.956Z,1.15
2022-08-02T20:50:37.642Z,1.35
2022-08-02T20:53:07.090Z,0.88
2022-08-02T20:55:42.889Z,1.10
2022-08-02T20:58:11.766Z,1.10
2022-08-02T21:00:41.281Z,1.10
2022-08-02T21:03:11.625Z,1.20
2022-08-02T21:05:55.726Z,0.90
2022-08-02T21:08:25.055Z,1.08
2022-08-02T21:10:55.448Z,1.20
2022-08-02T21:13:26.427Z,1.05
2022-08-02T21:15:56.959Z,1.30
2022-08-02T21:18:40.874Z,1.10
2022-08-02T21:21:11.109Z,1.63
2022-08-02T21:23:48.677Z,1.38
2022-08-02T21:26:25.932Z,2.05
2022-08-02T21:28:57.489Z,1.23
2022-08-02T21:31:30.022Z,0.90
2022-08-02T21:34:01.052Z,1.17
2022-08-02T21:36:32.242Z,1.20
2022-08-02T21:39:04.443Z,1.50
2022-08-02T21:41:40.039Z,1.10
2022-08-02T21:44:16.645Z,1.40
2022-08-02T21:46:46.641Z,1.30
2022-08-02T21:49:20.117Z,1.20
2022-08-02T21:51:50.377Z,1.33
2022-08-02T21:54:21.185Z,1.90
2022-08-02T21:56:53.448Z,1.60
2022-08-02T21:59:26.720Z,2.23
2022-08-02T22:01:57.053Z,3.33
2022-08-02T22:04:26.561Z,4.43
2022-08-02T22:06:56.113Z,5.33
2022-08-02T22:09:42.224Z,4.67
2022-08-02T22:12:18.065Z,5.60
2022-08-02T22:14:57.155Z,5.88
2022-08-02T22:18:14.914Z,5.13
2022-08-02T22:20:59.913Z,4.10
2022-08-02T22:23:50.253Z,3.78
2022-08-02T22:26:19.828Z,3.08
2022-08-02T22:28:56.147Z,2.93
2022-08-02T22:31:40.902Z,2.87
2022-08-02T22:37:00.218Z,2.20
2022-08-02T22:39:29.295Z,2.03
2022-08-02T22:42:05.180Z,2.17
2022-08-02T22:44:37.300Z,1.80
2022-08-02T22:47:14.767Z,1.70
2022-08-02T22:49:51.910Z,1.70
2022-08-02T22:52:23.215Z,1.60
2022-08-02T22:54:52.896Z,1.70
2022-08-02T22:57:30.709Z,1.80
2022-08-02T22:58:48.845Z,0.68
2022-08-02T22:59:00.635Z,0.57
2022-08-02T22:59:09.518Z,2.70
2022-08-02T23:00:04.623Z,1.50
2022-08-02T23:02:33.501Z,1.60
2022-08-02T23:05:02.304Z,1.75
2022-08-02T23:07:38.914Z,1.67
2022-08-02T23:10:08.813Z,1.20
2022-08-02T23:12:37.408Z,1.47
2022-08-02T23:15:09.255Z,1.10
2022-08-02T23:17:55.274Z,1.37
2022-08-02T23:20:23.921Z,1.30
2022-08-02T23:22:52.632Z,1.30
2022-08-02T23:25:24.604Z,1.27
2022-08-02T23:27:53.190Z,1.40
2022-08-02T23:30:23.351Z,1.47
2022-08-02T23:32:51.999Z,1.40
2022-08-02T23:35:20.752Z,1.10
2022-08-02T23:37:59.378Z,1.40
2022-08-02T23:40:39.655Z,1.40
2022-08-02T23:43:14.230Z,1.43
2022-08-02T23:45:46.600Z,1.20
2022-08-02T23:48:15.307Z,1.33
2022-08-02T23:50:43.909Z,1.50
2022-08-02T23:53:12.455Z,1.47
2022-08-02T23:55:40.961Z,1.60
2022-08-02T23:58:09.470Z,1.43
